sensor_id;sensor_type;location;lat;lon;timestamp;P1;durP1;ratioP1;P2;durP2;ratioP2
22746;SDS011;11540;52.130;5.648;2022-07-31T00:02:20;5.13;;;3.13;;
22746;SDS011;11540;52.130;5.648;2022-07-31T00:04:45;4.03;;;3.30;;
22746;SDS011;11540;52.130;5.648;2022-07-31T00:07:10;4.18;;;3.38;;
22746;SDS011;11540;52.130;5.648;2022-07-31T00:09:36;6.78;;;4.30;;
22746;SDS011;11540;52.130;5.648;2022-07-31T00:12:02;5.28;;;3.70;;
22746;SDS011;11540;52.130;5.648;2022-07-31T00:14:28;5.25;;;3.78;;
22746;SDS011;11540;52.130;5.648;2022-07-31T00:16:54;10.30;;;4.13;;
22746;SDS011;11540;52.130;5.648;2022-07-31T00:19:21;5.78;;;4.28;;
22746;SDS011;11540;52.130;5.648;2022-07-31T00:21:47;7.22;;;4.32;;
22746;SDS011;11540;52.130;5.648;2022-07-31T00:24:12;5.20;;;4.20;;
22746;SDS011;11540;52.130;5.648;2022-07-31T00:26:38;5.57;;;4.50;;
22746;SDS011;11540;52.130;5.648;2022-07-31T00:29:04;7.30;;;4.90;;
22746;SDS011;11540;52.130;5.648;2022-07-31T00:31:30;7.43;;;4.10;;
22746;SDS011;11540;52.130;5.648;2022-07-31T00:33:56;8.43;;;4.82;;
22746;SDS011;11540;52.130;5.648;2022-07-31T00:36:22;5.32;;;4.43;;
22746;SDS011;11540;52.130;5.648;2022-07-31T00:38:47;8.50;;;4.90;;
22746;SDS011;11540;52.130;5.648;2022-07-31T00:41:13;5.90;;;4.75;;
22746;SDS011;11540;52.130;5.648;2022-07-31T00:43:38;7.03;;;5.50;;
22746;SDS011;11540;52.130;5.648;2022-07-31T00:46:04;11.20;;;6.00;;
22746;SDS011;11540;52.130;5.648;2022-07-31T00:48:30;6.57;;;5.25;;
22746;SDS011;11540;52.130;5.648;2022-07-31T00:50:56;5.85;;;5.20;;
22746;SDS011;11540;52.130;5.648;2022-07-31T00:53:22;10.27;;;6.22;;
22746;SDS011;11540;52.130;5.648;2022-07-31T00:55:47;9.55;;;6.03;;
22746;SDS011;11540;52.130;5.648;2022-07-31T00:58:13;7.57;;;5.70;;
22746;SDS011;11540;52.130;5.648;2022-07-31T01:00:38;5.95;;;5.13;;
22746;SDS011;11540;52.130;5.648;2022-07-31T01:03:04;8.50;;;5.75;;
22746;SDS011;11540;52.130;5.648;2022-07-31T01:05:29;8.88;;;5.75;;
22746;SDS011;11540;52.130;5.648;2022-07-31T01:07:55;9.75;;;6.30;;
22746;SDS011;11540;52.130;5.648;2022-07-31T01:13:09;6.22;;;4.95;;
22746;SDS011;11540;52.130;5.648;2022-07-31T01:15:43;9.30;;;5.75;;
22746;SDS011;11540;52.130;5.648;2022-07-31T01:18:10;9.20;;;5.28;;
22746;SDS011;11540;52.130;5.648;2022-07-31T01:20:39;7.63;;;6.00;;
22746;SDS011;11540;52.130;5.648;2022-07-31T01:26:05;10.07;;;5.72;;
22746;SDS011;11540;52.130;5.648;2022-07-31T01:28:59;8.70;;;6.32;;
22746;SDS011;11540;52.130;5.648;2022-07-31T01:31:43;8.52;;;6.28;;
22746;SDS011;11540;52.130;5.648;2022-07-31T01:37:00;9.73;;;6.72;;
22746;SDS011;11540;52.130;5.648;2022-07-31T01:39:36;11.65;;;6.75;;
22746;SDS011;11540;52.130;5.648;2022-07-31T01:42:06;9.40;;;6.40;;
22746;SDS011;11540;52.130;5.648;2022-07-31T01:44:36;15.25;;;6.95;;
22746;SDS011;11540;52.130;5.648;2022-07-31T01:47:05;11.18;;;6.93;;
22746;SDS011;11540;52.130;5.648;2022-07-31T01:49:32;11.48;;;6.35;;
22746;SDS011;11540;52.130;5.648;2022-07-31T01:51:59;12.10;;;6.70;;
22746;SDS011;11540;52.130;5.648;2022-07-31T01:54:26;13.50;;;6.68;;
22746;SDS011;11540;52.130;5.648;2022-07-31T01:56:54;9.13;;;6.60;;
22746;SDS011;11540;52.130;5.648;2022-07-31T01:59:23;9.23;;;6.35;;
22746;SDS011;11540;52.130;5.648;2022-07-31T02:01:49;7.38;;;6.68;;
22746;SDS011;11540;52.130;5.648;2022-07-31T02:04:17;11.43;;;6.15;;
22746;SDS011;11540;52.130;5.648;2022-07-31T02:06:45;10.27;;;6.80;;
22746;SDS011;11540;52.130;5.648;2022-07-31T02:09:13;10.07;;;7.10;;
22746;SDS011;11540;52.130;5.648;2022-07-31T02:11:41;9.35;;;6.88;;
22746;SDS011;11540;52.130;5.648;2022-07-31T02:14:07;9.70;;;6.70;;
22746;SDS011;11540;52.130;5.648;2022-07-31T02:16:33;10.20;;;7.67;;
22746;SDS011;11540;52.130;5.648;2022-07-31T02:19:02;9.00;;;7.35;;
22746;SDS011;11540;52.130;5.648;2022-07-31T02:21:27;11.55;;;7.70;;
22746;SDS011;11540;52.130;5.648;2022-07-31T02:23:53;10.23;;;8.50;;
22746;SDS011;11540;52.130;5.648;2022-07-31T02:26:20;12.95;;;7.60;;
22746;SDS011;11540;52.130;5.648;2022-07-31T02:28:46;12.98;;;8.63;;
22746;SDS011;11540;52.130;5.648;2022-07-31T02:31:12;12.02;;;8.70;;
22746;SDS011;11540;52.130;5.648;2022-07-31T02:33:41;18.52;;;9.65;;
22746;SDS011;11540;52.130;5.648;2022-07-31T02:36:09;10.15;;;8.60;;
22746;SDS011;11540;52.130;5.648;2022-07-31T02:38:36;11.82;;;9.00;;
22746;SDS011;11540;52.130;5.648;2022-07-31T02:41:04;10.90;;;8.68;;
22746;SDS011;11540;52.130;5.648;2022-07-31T02:43:31;10.55;;;8.75;;
22746;SDS011;11540;52.130;5.648;2022-07-31T02:45:58;10.40;;;8.68;;
22746;SDS011;11540;52.130;5.648;2022-07-31T02:48:24;10.43;;;8.02;;
22746;SDS011;11540;52.130;5.648;2022-07-31T02:50:51;12.15;;;8.52;;
22746;SDS011;11540;52.130;5.648;2022-07-31T02:53:17;8.50;;;7.60;;
22746;SDS011;11540;52.130;5.648;2022-07-31T02:55:44;14.55;;;8.65;;
22746;SDS011;11540;52.130;5.648;2022-07-31T02:58:10;19.48;;;8.88;;
22746;SDS011;11540;52.130;5.648;2022-07-31T03:00:36;9.85;;;8.88;;
22746;SDS011;11540;52.130;5.648;2022-07-31T03:03:01;9.82;;;8.50;;
22746;SDS011;11540;52.130;5.648;2022-07-31T03:05:27;12.20;;;8.90;;
22746;SDS011;11540;52.130;5.648;2022-07-31T03:07:53;10.27;;;9.20;;
22746;SDS011;11540;52.130;5.648;2022-07-31T03:10:18;9.63;;;8.70;;
22746;SDS011;11540;52.130;5.648;2022-07-31T03:12:47;10.85;;;9.40;;
22746;SDS011;11540;52.130;5.648;2022-07-31T03:15:16;13.40;;;9.18;;
22746;SDS011;11540;52.130;5.648;2022-07-31T03:17:44;13.63;;;8.90;;
22746;SDS011;11540;52.130;5.648;2022-07-31T03:20:11;13.43;;;9.35;;
22746;SDS011;11540;52.130;5.648;2022-07-31T03:22:38;14.35;;;9.65;;
22746;SDS011;11540;52.130;5.648;2022-07-31T03:25:05;10.45;;;9.05;;
22746;SDS011;11540;52.130;5.648;2022-07-31T03:27:32;11.82;;;9.05;;
22746;SDS011;11540;52.130;5.648;2022-07-31T03:29:57;12.50;;;9.50;;
22746;SDS011;11540;52.130;5.648;2022-07-31T03:32:23;10.60;;;9.00;;
22746;SDS011;11540;52.130;5.648;2022-07-31T03:34:48;14.63;;;9.30;;
22746;SDS011;11540;52.130;5.648;2022-07-31T03:37:14;12.40;;;10.05;;
22746;SDS011;11540;52.130;5.648;2022-07-31T03:39:39;18.15;;;9.85;;
22746;SDS011;11540;52.130;5.648;2022-07-31T03:42:08;11.80;;;10.32;;
22746;SDS011;11540;52.130;5.648;2022-07-31T03:44:35;11.75;;;9.93;;
22746;SDS011;11540;52.130;5.648;2022-07-31T03:47:03;14.52;;;10.85;;
22746;SDS011;11540;52.130;5.648;2022-07-31T03:49:30;15.40;;;10.70;;
22746;SDS011;11540;52.130;5.648;2022-07-31T03:51:56;12.82;;;10.13;;
22746;SDS011;11540;52.130;5.648;2022-07-31T03:54:22;11.50;;;10.10;;
22746;SDS011;11540;52.130;5.648;2022-07-31T03:56:47;12.07;;;10.05;;
22746;SDS011;11540;52.130;5.648;2022-07-31T03:59:16;10.32;;;9.23;;
22746;SDS011;11540;52.130;5.648;2022-07-31T04:01:43;11.20;;;9.02;;
22746;SDS011;11540;52.130;5.648;2022-07-31T04:04:09;11.68;;;10.00;;
22746;SDS011;11540;52.130;5.648;2022-07-31T04:06:35;12.60;;;10.02;;
22746;SDS011;11540;52.130;5.648;2022-07-31T04:09:00;16.17;;;11.00;;
22746;SDS011;11540;52.130;5.648;2022-07-31T04:11:27;13.90;;;10.73;;
22746;SDS011;11540;52.130;5.648;2022-07-31T04:13:53;13.55;;;11.25;;
22746;SDS011;11540;52.130;5.648;2022-07-31T04:16:19;11.30;;;9.52;;
22746;SDS011;11540;52.130;5.648;2022-07-31T04:18:44;16.42;;;11.15;;
22746;SDS011;11540;52.130;5.648;2022-07-31T04:21:10;16.38;;;11.32;;
22746;SDS011;11540;52.130;5.648;2022-07-31T04:23:35;15.48;;;11.45;;
22746;SDS011;11540;52.130;5.648;2022-07-31T04:26:01;14.40;;;11.13;;
22746;SDS011;11540;52.130;5.648;2022-07-31T04:28:27;13.77;;;11.25;;
22746;SDS011;11540;52.130;5.648;2022-07-31T04:30:52;14.63;;;12.32;;
22746;SDS011;11540;52.130;5.648;2022-07-31T04:33:18;13.70;;;11.90;;
22746;SDS011;11540;52.130;5.648;2022-07-31T04:35:43;16.75;;;12.80;;
22746;SDS011;11540;52.130;5.648;2022-07-31T04:38:09;18.30;;;12.73;;
22746;SDS011;11540;52.130;5.648;2022-07-31T04:40:36;15.57;;;11.13;;
22746;SDS011;11540;52.130;5.648;2022-07-31T04:43:01;17.45;;;11.43;;
22746;SDS011;11540;52.130;5.648;2022-07-31T04:45:27;18.23;;;11.30;;
22746;SDS011;11540;52.130;5.648;2022-07-31T04:47:52;15.15;;;11.55;;
22746;SDS011;11540;52.130;5.648;2022-07-31T04:50:18;13.63;;;10.70;;
22746;SDS011;11540;52.130;5.648;2022-07-31T04:52:44;16.02;;;11.55;;
22746;SDS011;11540;52.130;5.648;2022-07-31T04:55:09;15.27;;;11.35;;
22746;SDS011;11540;52.130;5.648;2022-07-31T04:57:35;14.50;;;10.48;;
22746;SDS011;11540;52.130;5.648;2022-07-31T05:00:00;14.40;;;10.52;;
22746;SDS011;11540;52.130;5.648;2022-07-31T05:02:26;15.10;;;11.23;;
22746;SDS011;11540;52.130;5.648;2022-07-31T05:04:52;19.30;;;11.32;;
22746;SDS011;11540;52.130;5.648;2022-07-31T05:07:17;19.90;;;11.80;;
22746;SDS011;11540;52.130;5.648;2022-07-31T05:09:43;19.25;;;11.93;;
22746;SDS011;11540;52.130;5.648;2022-07-31T05:12:08;19.58;;;11.60;;
22746;SDS011;11540;52.130;5.648;2022-07-31T05:14:34;17.98;;;11.25;;
22746;SDS011;11540;52.130;5.648;2022-07-31T05:16:59;13.40;;;10.00;;
22746;SDS011;11540;52.130;5.648;2022-07-31T05:19:25;15.05;;;11.40;;
22746;SDS011;11540;52.130;5.648;2022-07-31T05:21:54;13.43;;;10.85;;
22746;SDS011;11540;52.130;5.648;2022-07-31T05:24:21;17.15;;;10.30;;
22746;SDS011;11540;52.130;5.648;2022-07-31T05:26:47;15.25;;;11.02;;
22746;SDS011;11540;52.130;5.648;2022-07-31T05:29:12;16.65;;;10.30;;
22746;SDS011;11540;52.130;5.648;2022-07-31T05:31:38;15.20;;;11.05;;
22746;SDS011;11540;52.130;5.648;2022-07-31T05:34:03;14.13;;;10.77;;
22746;SDS011;11540;52.130;5.648;2022-07-31T05:36:29;17.98;;;10.68;;
22746;SDS011;11540;52.130;5.648;2022-07-31T05:38:54;21.10;;;11.90;;
22746;SDS011;11540;52.130;5.648;2022-07-31T05:41:20;16.23;;;10.77;;
22746;SDS011;11540;52.130;5.648;2022-07-31T05:43:46;13.98;;;10.40;;
22746;SDS011;11540;52.130;5.648;2022-07-31T05:46:11;13.63;;;10.00;;
22746;SDS011;11540;52.130;5.648;2022-07-31T05:48:39;13.33;;;9.87;;
22746;SDS011;11540;52.130;5.648;2022-07-31T05:51:07;15.88;;;9.68;;
22746;SDS011;11540;52.130;5.648;2022-07-31T05:53:37;14.15;;;9.60;;
22746;SDS011;11540;52.130;5.648;2022-07-31T05:56:04;13.88;;;8.98;;
22746;SDS011;11540;52.130;5.648;2022-07-31T05:58:30;18.45;;;9.80;;
22746;SDS011;11540;52.130;5.648;2022-07-31T06:00:56;10.90;;;8.57;;
22746;SDS011;11540;52.130;5.648;2022-07-31T06:03:22;12.63;;;9.55;;
22746;SDS011;11540;52.130;5.648;2022-07-31T06:05:48;16.77;;;9.23;;
22746;SDS011;11540;52.130;5.648;2022-07-31T06:08:15;12.35;;;9.02;;
22746;SDS011;11540;52.130;5.648;2022-07-31T06:10:41;10.40;;;8.63;;
22746;SDS011;11540;52.130;5.648;2022-07-31T06:13:07;16.20;;;9.05;;
22746;SDS011;11540;52.130;5.648;2022-07-31T06:15:32;15.85;;;9.30;;
22746;SDS011;11540;52.130;5.648;2022-07-31T06:17:58;13.93;;;9.18;;
22746;SDS011;11540;52.130;5.648;2022-07-31T06:20:24;13.43;;;9.98;;
22746;SDS011;11540;52.130;5.648;2022-07-31T06:22:49;17.67;;;9.82;;
22746;SDS011;11540;52.130;5.648;2022-07-31T06:25:15;13.70;;;9.25;;
22746;SDS011;11540;52.130;5.648;2022-07-31T06:27:41;14.10;;;9.20;;
22746;SDS011;11540;52.130;5.648;2022-07-31T06:30:06;14.23;;;9.35;;
22746;SDS011;11540;52.130;5.648;2022-07-31T06:32:33;19.52;;;9.85;;
22746;SDS011;11540;52.130;5.648;2022-07-31T06:34:59;11.38;;;9.32;;
22746;SDS011;11540;52.130;5.648;2022-07-31T06:37:25;13.05;;;9.73;;
22746;SDS011;11540;52.130;5.648;2022-07-31T06:39:51;16.50;;;9.95;;
22746;SDS011;11540;52.130;5.648;2022-07-31T06:42:18;16.77;;;9.38;;
22746;SDS011;11540;52.130;5.648;2022-07-31T06:44:44;15.68;;;9.77;;
22746;SDS011;11540;52.130;5.648;2022-07-31T06:47:09;17.55;;;10.10;;
22746;SDS011;11540;52.130;5.648;2022-07-31T06:49:35;13.73;;;9.23;;
22746;SDS011;11540;52.130;5.648;2022-07-31T06:52:01;14.02;;;9.52;;
22746;SDS011;11540;52.130;5.648;2022-07-31T06:54:26;11.95;;;9.07;;
22746;SDS011;11540;52.130;5.648;2022-07-31T06:56:52;18.42;;;10.52;;
22746;SDS011;11540;52.130;5.648;2022-07-31T06:59:17;18.25;;;11.70;;
22746;SDS011;11540;52.130;5.648;2022-07-31T07:01:43;15.50;;;11.32;;
22746;SDS011;11540;52.130;5.648;2022-07-31T07:04:09;18.85;;;11.52;;
22746;SDS011;11540;52.130;5.648;2022-07-31T07:06:34;15.18;;;11.40;;
22746;SDS011;11540;52.130;5.648;2022-07-31T07:09:00;15.88;;;10.55;;
22746;SDS011;11540;52.130;5.648;2022-07-31T07:11:25;16.75;;;10.63;;
22746;SDS011;11540;52.130;5.648;2022-07-31T07:13:51;18.38;;;12.00;;
22746;SDS011;11540;52.130;5.648;2022-07-31T07:16:16;16.92;;;11.35;;
22746;SDS011;11540;52.130;5.648;2022-07-31T07:18:42;16.15;;;11.50;;
22746;SDS011;11540;52.130;5.648;2022-07-31T07:21:08;19.25;;;11.95;;
22746;SDS011;11540;52.130;5.648;2022-07-31T07:23:34;17.98;;;11.48;;
22746;SDS011;11540;52.130;5.648;2022-07-31T07:25:59;20.92;;;12.00;;
22746;SDS011;11540;52.130;5.648;2022-07-31T07:28:25;18.15;;;11.90;;
22746;SDS011;11540;52.130;5.648;2022-07-31T07:30:51;20.95;;;12.40;;
22746;SDS011;11540;52.130;5.648;2022-07-31T07:33:16;18.08;;;11.77;;
22746;SDS011;11540;52.130;5.648;2022-07-31T07:35:42;16.67;;;12.77;;
22746;SDS011;11540;52.130;5.648;2022-07-31T07:38:08;19.33;;;12.43;;
22746;SDS011;11540;52.130;5.648;2022-07-31T07:40:33;16.15;;;11.57;;
22746;SDS011;11540;52.130;5.648;2022-07-31T07:42:59;20.80;;;13.25;;
22746;SDS011;11540;52.130;5.648;2022-07-31T07:45:24;19.80;;;12.32;;
22746;SDS011;11540;52.130;5.648;2022-07-31T07:47:50;22.13;;;13.27;;
22746;SDS011;11540;52.130;5.648;2022-07-31T07:50:16;20.48;;;12.60;;
22746;SDS011;11540;52.130;5.648;2022-07-31T07:52:41;21.05;;;13.35;;
22746;SDS011;11540;52.130;5.648;2022-07-31T07:55:07;20.35;;;13.27;;
22746;SDS011;11540;52.130;5.648;2022-07-31T07:57:33;20.63;;;13.23;;
22746;SDS011;11540;52.130;5.648;2022-07-31T08:00:03;20.25;;;13.57;;
22746;SDS011;11540;52.130;5.648;2022-07-31T08:02:31;19.42;;;13.73;;
22746;SDS011;11540;52.130;5.648;2022-07-31T08:04:58;24.30;;;13.73;;
22746;SDS011;11540;52.130;5.648;2022-07-31T08:07:28;23.55;;;15.15;;
22746;SDS011;11540;52.130;5.648;2022-07-31T08:09:58;19.77;;;13.25;;
22746;SDS011;11540;52.130;5.648;2022-07-31T08:12:24;21.58;;;14.23;;
22746;SDS011;11540;52.130;5.648;2022-07-31T08:14:50;20.92;;;14.55;;
22746;SDS011;11540;52.130;5.648;2022-07-31T08:17:16;23.33;;;15.70;;
22746;SDS011;11540;52.130;5.648;2022-07-31T08:19:42;19.85;;;15.48;;
22746;SDS011;11540;52.130;5.648;2022-07-31T08:22:07;20.60;;;15.27;;
22746;SDS011;11540;52.130;5.648;2022-07-31T08:24:33;21.63;;;14.73;;
22746;SDS011;11540;52.130;5.648;2022-07-31T08:26:59;19.13;;;14.75;;
22746;SDS011;11540;52.130;5.648;2022-07-31T08:29:43;21.90;;;15.18;;
22746;SDS011;11540;52.130;5.648;2022-07-31T08:32:12;17.33;;;13.88;;
22746;SDS011;11540;52.130;5.648;2022-07-31T08:34:38;20.98;;;14.65;;
22746;SDS011;11540;52.130;5.648;2022-07-31T08:37:04;21.20;;;14.63;;
22746;SDS011;11540;52.130;5.648;2022-07-31T08:39:30;20.27;;;15.15;;
22746;SDS011;11540;52.130;5.648;2022-07-31T08:41:57;22.58;;;14.80;;
22746;SDS011;11540;52.130;5.648;2022-07-31T08:44:22;22.27;;;15.45;;
22746;SDS011;11540;52.130;5.648;2022-07-31T08:46:48;20.02;;;15.70;;
22746;SDS011;11540;52.130;5.648;2022-07-31T08:49:17;20.67;;;15.65;;
22746;SDS011;11540;52.130;5.648;2022-07-31T08:51:44;21.63;;;15.73;;
22746;SDS011;11540;52.130;5.648;2022-07-31T08:54:10;22.48;;;15.68;;
22746;SDS011;11540;52.130;5.648;2022-07-31T08:56:36;26.85;;;17.58;;
22746;SDS011;11540;52.130;5.648;2022-07-31T08:59:03;24.75;;;17.42;;
22746;SDS011;11540;52.130;5.648;2022-07-31T09:01:29;26.38;;;17.52;;
22746;SDS011;11540;52.130;5.648;2022-07-31T09:03:57;29.30;;;18.95;;
22746;SDS011;11540;52.130;5.648;2022-07-31T09:06:23;25.00;;;17.38;;
22746;SDS011;11540;52.130;5.648;2022-07-31T09:08:49;28.83;;;19.90;;
22746;SDS011;11540;52.130;5.648;2022-07-31T09:11:14;32.08;;;20.48;;
22746;SDS011;11540;52.130;5.648;2022-07-31T09:13:51;30.00;;;19.55;;
22746;SDS011;11540;52.130;5.648;2022-07-31T09:16:21;30.90;;;20.05;;
22746;SDS011;11540;52.130;5.648;2022-07-31T09:18:59;34.05;;;21.25;;
22746;SDS011;11540;52.130;5.648;2022-07-31T09:21:42;29.45;;;19.98;;
22746;SDS011;11540;52.130;5.648;2022-07-31T09:24:10;32.50;;;21.45;;
22746;SDS011;11540;52.130;5.648;2022-07-31T09:26:38;30.45;;;20.48;;
22746;SDS011;11540;52.130;5.648;2022-07-31T09:29:06;31.73;;;20.27;;
22746;SDS011;11540;52.130;5.648;2022-07-31T09:31:35;34.15;;;20.92;;
22746;SDS011;11540;52.130;5.648;2022-07-31T09:34:01;31.35;;;21.33;;
22746;SDS011;11540;52.130;5.648;2022-07-31T09:36:27;33.45;;;19.90;;
22746;SDS011;11540;52.130;5.648;2022-07-31T09:38:53;30.80;;;21.20;;
22746;SDS011;11540;52.130;5.648;2022-07-31T09:41:23;36.22;;;22.15;;
22746;SDS011;11540;52.130;5.648;2022-07-31T09:43:52;37.53;;;22.00;;
22746;SDS011;11540;52.130;5.648;2022-07-31T09:46:19;33.80;;;21.05;;
22746;SDS011;11540;52.130;5.648;2022-07-31T09:48:54;36.65;;;21.55;;
22746;SDS011;11540;52.130;5.648;2022-07-31T09:51:20;34.33;;;21.67;;
22746;SDS011;11540;52.130;5.648;2022-07-31T09:53:47;34.22;;;22.90;;
22746;SDS011;11540;52.130;5.648;2022-07-31T09:56:17;36.00;;;22.42;;
22746;SDS011;11540;52.130;5.648;2022-07-31T09:58:56;34.47;;;22.48;;
22746;SDS011;11540;52.130;5.648;2022-07-31T10:01:22;35.28;;;22.55;;
22746;SDS011;11540;52.130;5.648;2022-07-31T10:03:48;34.80;;;22.13;;
22746;SDS011;11540;52.130;5.648;2022-07-31T10:06:15;32.83;;;21.85;;
22746;SDS011;11540;52.130;5.648;2022-07-31T10:08:43;34.42;;;23.55;;
22746;SDS011;11540;52.130;5.648;2022-07-31T10:11:10;33.42;;;23.15;;
22746;SDS011;11540;52.130;5.648;2022-07-31T10:13:37;36.85;;;24.63;;
22746;SDS011;11540;52.130;5.648;2022-07-31T10:16:05;31.88;;;23.55;;
22746;SDS011;11540;52.130;5.648;2022-07-31T10:18:33;34.20;;;24.65;;
22746;SDS011;11540;52.130;5.648;2022-07-31T10:21:06;35.03;;;24.38;;
22746;SDS011;11540;52.130;5.648;2022-07-31T10:23:37;30.80;;;24.02;;
22746;SDS011;11540;52.130;5.648;2022-07-31T10:26:04;33.40;;;24.77;;
22746;SDS011;11540;52.130;5.648;2022-07-31T10:28:30;36.92;;;24.98;;
22746;SDS011;11540;52.130;5.648;2022-07-31T10:30:57;34.40;;;24.55;;
22746;SDS011;11540;52.130;5.648;2022-07-31T10:33:23;37.03;;;25.98;;
22746;SDS011;11540;52.130;5.648;2022-07-31T10:38:28;35.00;;;24.65;;
22746;SDS011;11540;52.130;5.648;2022-07-31T10:41:02;35.67;;;26.15;;
22746;SDS011;11540;52.130;5.648;2022-07-31T10:43:57;32.58;;;23.85;;
22746;SDS011;11540;52.130;5.648;2022-07-31T10:46:31;32.63;;;25.23;;
22746;SDS011;11540;52.130;5.648;2022-07-31T10:48:57;28.65;;;23.95;;
22746;SDS011;11540;52.130;5.648;2022-07-31T10:51:23;33.20;;;23.60;;
22746;SDS011;11540;52.130;5.648;2022-07-31T10:53:54;35.85;;;26.80;;
22746;SDS011;11540;52.130;5.648;2022-07-31T10:56:20;34.25;;;23.92;;
22746;SDS011;11540;52.130;5.648;2022-07-31T10:58:50;34.63;;;25.27;;
22746;SDS011;11540;52.130;5.648;2022-07-31T11:01:20;36.47;;;25.98;;
22746;SDS011;11540;52.130;5.648;2022-07-31T11:03:47;34.35;;;26.70;;
22746;SDS011;11540;52.130;5.648;2022-07-31T11:06:16;33.75;;;26.02;;
22746;SDS011;11540;52.130;5.648;2022-07-31T11:08:43;33.42;;;26.70;;
22746;SDS011;11540;52.130;5.648;2022-07-31T11:11:11;37.63;;;28.35;;
22746;SDS011;11540;52.130;5.648;2022-07-31T11:13:44;39.28;;;29.20;;
22746;SDS011;11540;52.130;5.648;2022-07-31T11:16:14;39.80;;;30.70;;
22746;SDS011;11540;52.130;5.648;2022-07-31T11:18:40;44.53;;;31.88;;
22746;SDS011;11540;52.130;5.648;2022-07-31T11:21:07;39.63;;;30.80;;
22746;SDS011;11540;52.130;5.648;2022-07-31T11:23:33;45.60;;;32.17;;
22746;SDS011;11540;52.130;5.648;2022-07-31T11:26:01;39.65;;;31.35;;
22746;SDS011;11540;52.130;5.648;2022-07-31T11:28:28;39.00;;;31.88;;
22746;SDS011;11540;52.130;5.648;2022-07-31T11:30:55;41.60;;;31.70;;
22746;SDS011;11540;52.130;5.648;2022-07-31T11:38:54;40.58;;;32.20;;
22746;SDS011;11540;52.130;5.648;2022-07-31T11:41:20;39.97;;;32.38;;
22746;SDS011;11540;52.130;5.648;2022-07-31T11:43:52;44.83;;;34.42;;
22746;SDS011;11540;52.130;5.648;2022-07-31T11:46:25;43.65;;;31.67;;
22746;SDS011;11540;52.130;5.648;2022-07-31T11:48:55;42.90;;;32.38;;
22746;SDS011;11540;52.130;5.648;2022-07-31T11:51:22;39.45;;;31.13;;
22746;SDS011;11540;52.130;5.648;2022-07-31T11:53:49;35.95;;;28.88;;
22746;SDS011;11540;52.130;5.648;2022-07-31T11:56:16;39.30;;;29.83;;
22746;SDS011;11540;52.130;5.648;2022-07-31T11:58:53;36.17;;;29.70;;
22746;SDS011;11540;52.130;5.648;2022-07-31T12:01:24;36.88;;;29.80;;
22746;SDS011;11540;52.130;5.648;2022-07-31T12:03:51;39.55;;;27.08;;
22746;SDS011;11540;52.130;5.648;2022-07-31T12:06:17;36.10;;;29.40;;
22746;SDS011;11540;52.130;5.648;2022-07-31T12:08:45;30.80;;;25.40;;
22746;SDS011;11540;52.130;5.648;2022-07-31T12:11:12;34.65;;;27.10;;
22746;SDS011;11540;52.130;5.648;2022-07-31T12:13:43;33.38;;;26.10;;
22746;SDS011;11540;52.130;5.648;2022-07-31T12:16:12;33.13;;;27.13;;
22746;SDS011;11540;52.130;5.648;2022-07-31T12:18:47;33.97;;;26.98;;
22746;SDS011;11540;52.130;5.648;2022-07-31T12:21:18;33.55;;;27.13;;
22746;SDS011;11540;52.130;5.648;2022-07-31T12:23:46;29.42;;;26.13;;
22746;SDS011;11540;52.130;5.648;2022-07-31T12:31:23;28.98;;;25.67;;
22746;SDS011;11540;52.130;5.648;2022-07-31T12:33:49;29.27;;;23.70;;
22746;SDS011;11540;52.130;5.648;2022-07-31T12:36:15;26.45;;;23.40;;
22746;SDS011;11540;52.130;5.648;2022-07-31T12:38:41;25.35;;;22.48;;
22746;SDS011;11540;52.130;5.648;2022-07-31T12:41:08;26.77;;;21.75;;
22746;SDS011;11540;52.130;5.648;2022-07-31T12:43:33;24.38;;;21.80;;
22746;SDS011;11540;52.130;5.648;2022-07-31T12:45:59;26.40;;;20.60;;
22746;SDS011;11540;52.130;5.648;2022-07-31T12:48:29;23.02;;;19.50;;
22746;SDS011;11540;52.130;5.648;2022-07-31T12:51:00;20.88;;;18.13;;
22746;SDS011;11540;52.130;5.648;2022-07-31T12:53:27;22.63;;;19.52;;
22746;SDS011;11540;52.130;5.648;2022-07-31T12:55:56;20.65;;;17.75;;
22746;SDS011;11540;52.130;5.648;2022-07-31T12:58:22;20.42;;;15.65;;
22746;SDS011;11540;52.130;5.648;2022-07-31T13:00:48;19.17;;;15.48;;
22746;SDS011;11540;52.130;5.648;2022-07-31T13:03:13;17.33;;;14.88;;
22746;SDS011;11540;52.130;5.648;2022-07-31T13:05:39;17.30;;;14.57;;
22746;SDS011;11540;52.130;5.648;2022-07-31T13:08:04;20.58;;;14.40;;
22746;SDS011;11540;52.130;5.648;2022-07-31T13:10:32;19.70;;;14.55;;
22746;SDS011;11540;52.130;5.648;2022-07-31T13:12:58;15.75;;;12.35;;
22746;SDS011;11540;52.130;5.648;2022-07-31T13:15:24;19.17;;;12.98;;
22746;SDS011;11540;52.130;5.648;2022-07-31T13:17:59;18.65;;;13.23;;
22746;SDS011;11540;52.130;5.648;2022-07-31T13:20:31;18.58;;;13.38;;
22746;SDS011;11540;52.130;5.648;2022-07-31T13:22:57;20.08;;;13.65;;
22746;SDS011;11540;52.130;5.648;2022-07-31T13:25:24;21.17;;;13.50;;
22746;SDS011;11540;52.130;5.648;2022-07-31T13:27:50;17.05;;;12.98;;
22746;SDS011;11540;52.130;5.648;2022-07-31T13:30:16;18.15;;;13.75;;
22746;SDS011;11540;52.130;5.648;2022-07-31T13:32:41;15.75;;;13.18;;
22746;SDS011;11540;52.130;5.648;2022-07-31T13:35:07;23.23;;;13.68;;
22746;SDS011;11540;52.130;5.648;2022-07-31T13:37:32;16.30;;;12.85;;
22746;SDS011;11540;52.130;5.648;2022-07-31T13:39:58;21.30;;;13.07;;
22746;SDS011;11540;52.130;5.648;2022-07-31T13:42:23;17.17;;;13.25;;
22746;SDS011;11540;52.130;5.648;2022-07-31T13:44:49;17.63;;;13.10;;
22746;SDS011;11540;52.130;5.648;2022-07-31T13:47:14;20.50;;;12.57;;
22746;SDS011;11540;52.130;5.648;2022-07-31T13:49:40;17.02;;;12.52;;
22746;SDS011;11540;52.130;5.648;2022-07-31T13:52:06;18.00;;;12.40;;
22746;SDS011;11540;52.130;5.648;2022-07-31T13:54:31;20.08;;;12.25;;
22746;SDS011;11540;52.130;5.648;2022-07-31T13:56:57;21.88;;;13.65;;
22746;SDS011;11540;52.130;5.648;2022-07-31T13:59:22;19.35;;;13.95;;
22746;SDS011;11540;52.130;5.648;2022-07-31T14:01:48;15.27;;;13.10;;
22746;SDS011;11540;52.130;5.648;2022-07-31T14:04:18;15.73;;;12.23;;
22746;SDS011;11540;52.130;5.648;2022-07-31T14:06:44;20.55;;;13.55;;
22746;SDS011;11540;52.130;5.648;2022-07-31T14:09:10;19.55;;;13.32;;
22746;SDS011;11540;52.130;5.648;2022-07-31T14:11:36;18.23;;;12.65;;
22746;SDS011;11540;52.130;5.648;2022-07-31T14:14:02;18.77;;;11.02;;
22746;SDS011;11540;52.130;5.648;2022-07-31T14:16:27;14.00;;;9.32;;
22746;SDS011;11540;52.130;5.648;2022-07-31T14:18:53;12.05;;;9.18;;
22746;SDS011;11540;52.130;5.648;2022-07-31T14:21:18;12.48;;;8.80;;
22746;SDS011;11540;52.130;5.648;2022-07-31T14:23:44;10.93;;;7.68;;
22746;SDS011;11540;52.130;5.648;2022-07-31T14:26:10;10.65;;;6.60;;
22746;SDS011;11540;52.130;5.648;2022-07-31T14:28:35;11.23;;;6.40;;
22746;SDS011;11540;52.130;5.648;2022-07-31T14:31:01;14.15;;;7.55;;
22746;SDS011;11540;52.130;5.648;2022-07-31T14:33:27;11.73;;;7.10;;
22746;SDS011;11540;52.130;5.648;2022-07-31T14:35:52;10.77;;;7.25;;
22746;SDS011;11540;52.130;5.648;2022-07-31T14:38:18;8.25;;;7.00;;
22746;SDS011;11540;52.130;5.648;2022-07-31T14:40:43;11.93;;;7.45;;
22746;SDS011;11540;52.130;5.648;2022-07-31T14:43:09;11.52;;;6.95;;
22746;SDS011;11540;52.130;5.648;2022-07-31T14:45:36;11.63;;;6.40;;
22746;SDS011;11540;52.130;5.648;2022-07-31T14:48:03;14.10;;;5.90;;
22746;SDS011;11540;52.130;5.648;2022-07-31T14:50:29;15.38;;;6.18;;